Port Royal, Virginia
Current Conditions -  °F | °C
As of 10:35 AM on Friday 28 Nov 2014 (Local Time) from KEZF Reporting Station
Clear Clear  
Wind Chill: 34°   Ceiling: Unl
Heat Index: 40°   Visibility: 10mi
Dew Point: 22°   Wind: 9mph
Humidity: 49%   Direction: 310°NW
Pressure: 30.33"   Gusts: NA
Location:  38.17°N, 77.19°W
Report Text: KEZF 281535Z AUTO 31008KT 10SM CLR 05/M05 A3033 RMK AO2 T00451055
Loading
Personal Weather Stations






























Interactive Weather Map New forecast layout! Learn more

10-Day Weather Forecast

Advertisements
Track Severe Weather on mobile